sensor_id;sensor_type;location;lat;lon;timestamp;temperature;humidity
63445;DHT22;49573;47.682;9.170;2024-02-16T00:02:27;7.70;78.00
63445;DHT22;49573;47.682;9.170;2024-02-16T00:05:13;7.80;77.70
63445;DHT22;49573;47.682;9.170;2024-02-16T00:07:59;7.80;78.20
63445;DHT22;49573;47.682;9.170;2024-02-16T00:10:45;7.80;77.80
63445;DHT22;49573;47.682;9.170;2024-02-16T00:13:33;7.80;78.20
63445;DHT22;49573;47.682;9.170;2024-02-16T00:16:19;7.80;78.30
63445;DHT22;49573;47.682;9.170;2024-02-16T00:19:05;7.80;78.10
63445;DHT22;49573;47.682;9.170;2024-02-16T00:21:51;7.80;78.30
63445;DHT22;49573;47.682;9.170;2024-02-16T00:24:37;7.80;78.40
63445;DHT22;49573;47.682;9.170;2024-02-16T00:27:23;7.90;78.30
63445;DHT22;49573;47.682;9.170;2024-02-16T00:30:11;7.80;78.60
63445;DHT22;49573;47.682;9.170;2024-02-16T00:32:57;7.80;78.50
63445;DHT22;49573;47.682;9.170;2024-02-16T00:35:43;7.80;78.30
63445;DHT22;49573;47.682;9.170;2024-02-16T00:38:29;7.80;78.60
63445;DHT22;49573;47.682;9.170;2024-02-16T00:41:19;7.80;78.40
63445;DHT22;49573;47.682;9.170;2024-02-16T00:44:05;7.80;78.60
63445;DHT22;49573;47.682;9.170;2024-02-16T00:46:53;7.80;78.50
63445;DHT22;49573;47.682;9.170;2024-02-16T00:49:39;7.80;78.70
63445;DHT22;49573;47.682;9.170;2024-02-16T00:52:25;7.80;78.80
63445;DHT22;49573;47.682;9.170;2024-02-16T00:55:11;7.80;78.80
63445;DHT22;49573;47.682;9.170;2024-02-16T00:57:58;7.80;78.90
63445;DHT22;49573;47.682;9.170;2024-02-16T01:00:44;7.80;78.80
63445;DHT22;49573;47.682;9.170;2024-02-16T01:03:32;7.80;78.80
63445;DHT22;49573;47.682;9.170;2024-02-16T01:06:18;7.80;79.10
63445;DHT22;49573;47.682;9.170;2024-02-16T01:09:04;7.80;78.80
63445;DHT22;49573;47.682;9.170;2024-02-16T01:11:50;7.80;78.50
63445;DHT22;49573;47.682;9.170;2024-02-16T01:14:36;7.70;79.00
63445;DHT22;49573;47.682;9.170;2024-02-16T01:17:22;7.80;78.80
63445;DHT22;49573;47.682;9.170;2024-02-16T01:20:11;7.80;78.90
63445;DHT22;49573;47.682;9.170;2024-02-16T01:22:57;7.80;79.00
63445;DHT22;49573;47.682;9.170;2024-02-16T01:25:43;7.80;79.10
63445;DHT22;49573;47.682;9.170;2024-02-16T01:28:29;7.80;79.10
63445;DHT22;49573;47.682;9.170;2024-02-16T01:31:15;7.80;79.20
63445;DHT22;49573;47.682;9.170;2024-02-16T01:34:01;7.70;79.00
63445;DHT22;49573;47.682;9.170;2024-02-16T01:36:49;7.70;78.90
63445;DHT22;49573;47.682;9.170;2024-02-16T01:39:35;7.80;78.90
63445;DHT22;49573;47.682;9.170;2024-02-16T01:42:21;7.70;79.40
63445;DHT22;49573;47.682;9.170;2024-02-16T01:45:07;7.70;79.30
63445;DHT22;49573;47.682;9.170;2024-02-16T01:47:55;7.70;79.70
63445;DHT22;49573;47.682;9.170;2024-02-16T01:50:42;7.70;79.90
63445;DHT22;49573;47.682;9.170;2024-02-16T01:53:31;7.70;79.60
63445;DHT22;49573;47.682;9.170;2024-02-16T01:56:17;7.70;79.20
63445;DHT22;49573;47.682;9.170;2024-02-16T01:59:06;7.60;79.60
63445;DHT22;49573;47.682;9.170;2024-02-16T02:01:52;7.60;79.20
63445;DHT22;49573;47.682;9.170;2024-02-16T02:04:38;7.60;79.90
63445;DHT22;49573;47.682;9.170;2024-02-16T02:07:25;7.50;80.10
63445;DHT22;49573;47.682;9.170;2024-02-16T02:10:14;7.50;80.20
63445;DHT22;49573;47.682;9.170;2024-02-16T02:13:00;7.50;79.90
63445;DHT22;49573;47.682;9.170;2024-02-16T02:15:46;7.40;80.00
63445;DHT22;49573;47.682;9.170;2024-02-16T02:18:33;7.40;80.00
63445;DHT22;49573;47.682;9.170;2024-02-16T02:21:19;7.40;80.10
63445;DHT22;49573;47.682;9.170;2024-02-16T02:24:06;7.30;80.10
63445;DHT22;49573;47.682;9.170;2024-02-16T02:26:52;7.30;80.10
63445;DHT22;49573;47.682;9.170;2024-02-16T02:29:39;7.30;80.10
63445;DHT22;49573;47.682;9.170;2024-02-16T02:32:25;7.30;80.30
63445;DHT22;49573;47.682;9.170;2024-02-16T02:35:11;7.30;80.40
63445;DHT22;49573;47.682;9.170;2024-02-16T02:38:00;7.30;80.20
63445;DHT22;49573;47.682;9.170;2024-02-16T02:40:47;7.30;80.30
63445;DHT22;49573;47.682;9.170;2024-02-16T02:43:33;7.30;80.50
63445;DHT22;49573;47.682;9.170;2024-02-16T02:46:19;7.30;80.40
63445;DHT22;49573;47.682;9.170;2024-02-16T02:49:05;7.20;80.60
63445;DHT22;49573;47.682;9.170;2024-02-16T02:51:51;7.30;80.40
63445;DHT22;49573;47.682;9.170;2024-02-16T02:54:37;7.20;80.60
63445;DHT22;49573;47.682;9.170;2024-02-16T02:57:24;7.20;80.50
63445;DHT22;49573;47.682;9.170;2024-02-16T03:00:11;7.20;80.70
63445;DHT22;49573;47.682;9.170;2024-02-16T03:02:57;7.20;80.70
63445;DHT22;49573;47.682;9.170;2024-02-16T03:05:43;7.20;80.80
63445;DHT22;49573;47.682;9.170;2024-02-16T03:08:30;7.20;81.00
63445;DHT22;49573;47.682;9.170;2024-02-16T03:11:16;7.10;80.80
63445;DHT22;49573;47.682;9.170;2024-02-16T03:14:04;7.00;80.80
63445;DHT22;49573;47.682;9.170;2024-02-16T03:16:50;7.10;81.00
63445;DHT22;49573;47.682;9.170;2024-02-16T03:19:36;7.00;80.80
63445;DHT22;49573;47.682;9.170;2024-02-16T03:22:23;7.00;80.80
63445;DHT22;49573;47.682;9.170;2024-02-16T03:25:09;6.90;80.90
63445;DHT22;49573;47.682;9.170;2024-02-16T03:27:55;7.00;80.70
63445;DHT22;49573;47.682;9.170;2024-02-16T03:30:44;6.90;80.70
63445;DHT22;49573;47.682;9.170;2024-02-16T03:33:30;6.90;80.70
63445;DHT22;49573;47.682;9.170;2024-02-16T03:36:16;6.90;81.00
63445;DHT22;49573;47.682;9.170;2024-02-16T03:39:02;6.80;81.20
63445;DHT22;49573;47.682;9.170;2024-02-16T03:41:48;6.80;81.60
63445;DHT22;49573;47.682;9.170;2024-02-16T03:44:34;6.80;81.00
63445;DHT22;49573;47.682;9.170;2024-02-16T03:47:21;6.80;81.30
63445;DHT22;49573;47.682;9.170;2024-02-16T03:50:08;6.80;81.20
63445;DHT22;49573;47.682;9.170;2024-02-16T03:52:54;6.70;81.40
63445;DHT22;49573;47.682;9.170;2024-02-16T03:55:40;6.70;81.50
63445;DHT22;49573;47.682;9.170;2024-02-16T03:58:27;6.70;81.40
63445;DHT22;49573;47.682;9.170;2024-02-16T04:01:13;6.70;81.50
63445;DHT22;49573;47.682;9.170;2024-02-16T04:04:01;6.70;81.20
63445;DHT22;49573;47.682;9.170;2024-02-16T04:06:49;6.70;81.50
63445;DHT22;49573;47.682;9.170;2024-02-16T04:09:35;6.70;81.20
63445;DHT22;49573;47.682;9.170;2024-02-16T04:12:21;6.70;81.60
63445;DHT22;49573;47.682;9.170;2024-02-16T04:15:07;6.70;81.70
63445;DHT22;49573;47.682;9.170;2024-02-16T04:17:53;6.70;82.00
63445;DHT22;49573;47.682;9.170;2024-02-16T04:20:41;6.60;82.10
63445;DHT22;49573;47.682;9.170;2024-02-16T04:23:27;6.60;81.90
63445;DHT22;49573;47.682;9.170;2024-02-16T04:26:13;6.60;81.80
63445;DHT22;49573;47.682;9.170;2024-02-16T04:28:59;6.60;81.70
63445;DHT22;49573;47.682;9.170;2024-02-16T04:31:45;6.50;81.70
63445;DHT22;49573;47.682;9.170;2024-02-16T04:34:32;6.50;81.60
63445;DHT22;49573;47.682;9.170;2024-02-16T04:37:19;6.50;81.60
63445;DHT22;49573;47.682;9.170;2024-02-16T04:40:06;6.50;82.00
63445;DHT22;49573;47.682;9.170;2024-02-16T04:42:52;6.50;81.60
63445;DHT22;49573;47.682;9.170;2024-02-16T04:45:38;6.60;82.00
63445;DHT22;49573;47.682;9.170;2024-02-16T04:48:24;6.50;81.90
63445;DHT22;49573;47.682;9.170;2024-02-16T04:51:10;6.40;81.80
63445;DHT22;49573;47.682;9.170;2024-02-16T04:53:58;6.40;81.70
63445;DHT22;49573;47.682;9.170;2024-02-16T04:56:44;6.30;81.70
63445;DHT22;49573;47.682;9.170;2024-02-16T04:59:30;6.30;81.80
63445;DHT22;49573;47.682;9.170;2024-02-16T05:02:17;6.20;81.80
63445;DHT22;49573;47.682;9.170;2024-02-16T05:05:03;6.20;82.10
63445;DHT22;49573;47.682;9.170;2024-02-16T05:07:50;6.20;82.10
63445;DHT22;49573;47.682;9.170;2024-02-16T05:10:38;6.20;82.40
63445;DHT22;49573;47.682;9.170;2024-02-16T05:13:24;6.10;82.50
63445;DHT22;49573;47.682;9.170;2024-02-16T05:16:11;6.10;82.60
63445;DHT22;49573;47.682;9.170;2024-02-16T05:18:58;6.10;82.80
63445;DHT22;49573;47.682;9.170;2024-02-16T05:21:44;6.10;82.50
63445;DHT22;49573;47.682;9.170;2024-02-16T05:24:30;6.10;82.60
63445;DHT22;49573;47.682;9.170;2024-02-16T05:27:17;6.10;82.50
63445;DHT22;49573;47.682;9.170;2024-02-16T05:30:04;6.10;82.40
63445;DHT22;49573;47.682;9.170;2024-02-16T05:32:53;6.10;82.40
63445;DHT22;49573;47.682;9.170;2024-02-16T05:35:39;6.00;82.30
63445;DHT22;49573;47.682;9.170;2024-02-16T05:38:25;6.10;82.30
63445;DHT22;49573;47.682;9.170;2024-02-16T05:41:26;6.10;82.40
63445;DHT22;49573;47.682;9.170;2024-02-16T05:44:13;6.00;82.40
63445;DHT22;49573;47.682;9.170;2024-02-16T05:47:00;6.00;82.50
63445;DHT22;49573;47.682;9.170;2024-02-16T05:49:46;6.10;83.40
63445;DHT22;49573;47.682;9.170;2024-02-16T05:52:32;6.00;83.60
63445;DHT22;49573;47.682;9.170;2024-02-16T05:55:18;6.10;83.80
63445;DHT22;49573;47.682;9.170;2024-02-16T05:58:04;6.00;83.60
63445;DHT22;49573;47.682;9.170;2024-02-16T06:00:52;6.00;83.60
63445;DHT22;49573;47.682;9.170;2024-02-16T06:03:41;6.00;83.40
63445;DHT22;49573;47.682;9.170;2024-02-16T06:06:27;6.00;83.60
63445;DHT22;49573;47.682;9.170;2024-02-16T06:09:13;6.00;83.50
63445;DHT22;49573;47.682;9.170;2024-02-16T06:12:01;6.00;83.70
63445;DHT22;49573;47.682;9.170;2024-02-16T06:14:49;6.00;83.60
63445;DHT22;49573;47.682;9.170;2024-02-16T06:17:36;6.10;84.10
63445;DHT22;49573;47.682;9.170;2024-02-16T06:20:22;6.00;84.00
63445;DHT22;49573;47.682;9.170;2024-02-16T06:23:08;6.00;84.20
63445;DHT22;49573;47.682;9.170;2024-02-16T06:25:54;6.00;84.10
63445;DHT22;49573;47.682;9.170;2024-02-16T06:28:40;6.00;83.70
63445;DHT22;49573;47.682;9.170;2024-02-16T06:31:26;6.00;83.60
63445;DHT22;49573;47.682;9.170;2024-02-16T06:34:14;6.00;83.70
63445;DHT22;49573;47.682;9.170;2024-02-16T06:37:00;6.10;83.30
63445;DHT22;49573;47.682;9.170;2024-02-16T06:39:46;6.10;83.50
63445;DHT22;49573;47.682;9.170;2024-02-16T06:42:32;6.20;83.30
63445;DHT22;49573;47.682;9.170;2024-02-16T06:45:19;6.20;83.30
63445;DHT22;49573;47.682;9.170;2024-02-16T06:48:06;6.20;83.30
63445;DHT22;49573;47.682;9.170;2024-02-16T06:50:53;6.20;83.30
63445;DHT22;49573;47.682;9.170;2024-02-16T06:53:39;6.20;83.50
63445;DHT22;49573;47.682;9.170;2024-02-16T06:56:25;6.20;83.60
63445;DHT22;49573;47.682;9.170;2024-02-16T06:59:12;6.30;83.60
63445;DHT22;49573;47.682;9.170;2024-02-16T07:01:58;6.40;83.40
63445;DHT22;49573;47.682;9.170;2024-02-16T07:04:44;6.40;83.80
63445;DHT22;49573;47.682;9.170;2024-02-16T07:07:32;6.50;83.50
63445;DHT22;49573;47.682;9.170;2024-02-16T07:10:21;6.50;83.70
63445;DHT22;49573;47.682;9.170;2024-02-16T07:13:07;6.50;83.60
63445;DHT22;49573;47.682;9.170;2024-02-16T07:15:53;6.60;83.70
63445;DHT22;49573;47.682;9.170;2024-02-16T07:18:39;6.60;83.70
63445;DHT22;49573;47.682;9.170;2024-02-16T07:21:25;6.70;83.70
63445;DHT22;49573;47.682;9.170;2024-02-16T07:24:13;6.80;83.60
63445;DHT22;49573;47.682;9.170;2024-02-16T07:27:01;7.00;82.90
63445;DHT22;49573;47.682;9.170;2024-02-16T07:29:47;7.00;83.20
63445;DHT22;49573;47.682;9.170;2024-02-16T07:32:33;7.10;83.20
63445;DHT22;49573;47.682;9.170;2024-02-16T07:35:19;7.20;83.00
63445;DHT22;49573;47.682;9.170;2024-02-16T07:38:07;7.20;82.90
63445;DHT22;49573;47.682;9.170;2024-02-16T07:40:54;7.30;83.10
63445;DHT22;49573;47.682;9.170;2024-02-16T07:43:40;7.40;83.20
63445;DHT22;49573;47.682;9.170;2024-02-16T07:46:26;7.50;82.90
63445;DHT22;49573;47.682;9.170;2024-02-16T07:49:12;7.70;82.80
63445;DHT22;49573;47.682;9.170;2024-02-16T07:51:58;7.80;82.60
63445;DHT22;49573;47.682;9.170;2024-02-16T07:54:44;8.00;82.10
63445;DHT22;49573;47.682;9.170;2024-02-16T07:57:32;8.10;81.80
63445;DHT22;49573;47.682;9.170;2024-02-16T08:00:18;8.30;81.50
63445;DHT22;49573;47.682;9.170;2024-02-16T08:03:05;8.40;80.80
63445;DHT22;49573;47.682;9.170;2024-02-16T08:05:51;8.60;80.50
63445;DHT22;49573;47.682;9.170;2024-02-16T08:08:37;8.70;80.10
63445;DHT22;49573;47.682;9.170;2024-02-16T08:11:23;8.90;79.50
63445;DHT22;49573;47.682;9.170;2024-02-16T08:14:10;9.10;79.30
63445;DHT22;49573;47.682;9.170;2024-02-16T08:16:56;9.30;78.60
63445;DHT22;49573;47.682;9.170;2024-02-16T08:19:43;9.40;77.70
63445;DHT22;49573;47.682;9.170;2024-02-16T08:22:29;9.50;77.50
63445;DHT22;49573;47.682;9.170;2024-02-16T08:25:15;9.70;77.00
63445;DHT22;49573;47.682;9.170;2024-02-16T08:28:01;9.90;76.40
63445;DHT22;49573;47.682;9.170;2024-02-16T08:30:48;10.10;75.90
63445;DHT22;49573;47.682;9.170;2024-02-16T08:33:34;10.20;75.30
63445;DHT22;49573;47.682;9.170;2024-02-16T08:36:22;10.20;75.10
63445;DHT22;49573;47.682;9.170;2024-02-16T08:39:14;10.30;75.10
63445;DHT22;49573;47.682;9.170;2024-02-16T08:42:01;10.40;74.80
63445;DHT22;49573;47.682;9.170;2024-02-16T08:44:47;10.50;74.60
63445;DHT22;49573;47.682;9.170;2024-02-16T08:47:34;10.60;73.80
63445;DHT22;49573;47.682;9.170;2024-02-16T08:50:20;10.60;73.60
63445;DHT22;49573;47.682;9.170;2024-02-16T08:53:06;10.60;72.90
63445;DHT22;49573;47.682;9.170;2024-02-16T08:55:53;10.70;72.90
63445;DHT22;49573;47.682;9.170;2024-02-16T08:58:39;10.80;71.90
63445;DHT22;49573;47.682;9.170;2024-02-16T09:01:31;10.80;72.20
63445;DHT22;49573;47.682;9.170;2024-02-16T09:04:19;10.90;71.70
63445;DHT22;49573;47.682;9.170;2024-02-16T09:07:05;11.00;71.80
63445;DHT22;49573;47.682;9.170;2024-02-16T09:09:51;11.20;71.50
63445;DHT22;49573;47.682;9.170;2024-02-16T09:12:37;11.20;71.00
63445;DHT22;49573;47.682;9.170;2024-02-16T09:15:23;11.30;70.30
63445;DHT22;49573;47.682;9.170;2024-02-16T09:18:09;11.40;70.10
63445;DHT22;49573;47.682;9.170;2024-02-16T09:20:56;11.60;69.50
63445;DHT22;49573;47.682;9.170;2024-02-16T09:23:42;11.90;70.00
63445;DHT22;49573;47.682;9.170;2024-02-16T09:26:29;12.20;69.30
63445;DHT22;49573;47.682;9.170;2024-02-16T09:29:19;12.40;69.00
63445;DHT22;49573;47.682;9.170;2024-02-16T09:32:06;12.50;67.90
63445;DHT22;49573;47.682;9.170;2024-02-16T09:34:52;12.70;67.90
63445;DHT22;49573;47.682;9.170;2024-02-16T09:37:41;12.80;66.90
63445;DHT22;49573;47.682;9.170;2024-02-16T09:40:27;12.90;66.90
63445;DHT22;49573;47.682;9.170;2024-02-16T09:43:27;13.00;66.10
63445;DHT22;49573;47.682;9.170;2024-02-16T09:46:13;13.10;65.80
63445;DHT22;49573;47.682;9.170;2024-02-16T09:49:01;13.30;65.00
63445;DHT22;49573;47.682;9.170;2024-02-16T09:51:48;13.50;65.50
63445;DHT22;49573;47.682;9.170;2024-02-16T09:54:36;13.50;64.60
63445;DHT22;49573;47.682;9.170;2024-02-16T09:57:22;13.60;63.70
63445;DHT22;49573;47.682;9.170;2024-02-16T10:00:10;13.80;64.30
63445;DHT22;49573;47.682;9.170;2024-02-16T10:02:56;13.80;63.30
63445;DHT22;49573;47.682;9.170;2024-02-16T10:05:42;14.00;63.60
63445;DHT22;49573;47.682;9.170;2024-02-16T10:08:28;14.00;63.10
63445;DHT22;49573;47.682;9.170;2024-02-16T10:11:16;14.40;62.50
63445;DHT22;49573;47.682;9.170;2024-02-16T10:14:03;14.20;61.30
63445;DHT22;49573;47.682;9.170;2024-02-16T10:16:59;14.50;61.70
63445;DHT22;49573;47.682;9.170;2024-02-16T10:19:55;14.80;60.90
63445;DHT22;49573;47.682;9.170;2024-02-16T10:22:41;14.80;60.90
63445;DHT22;49573;47.682;9.170;2024-02-16T10:25:27;14.80;60.70
63445;DHT22;49573;47.682;9.170;2024-02-16T10:28:14;14.50;58.90
63445;DHT22;49573;47.682;9.170;2024-02-16T10:31:03;14.50;60.30
63445;DHT22;49573;47.682;9.170;2024-02-16T10:33:52;14.50;61.10
63445;DHT22;49573;47.682;9.170;2024-02-16T10:36:39;14.70;60.90
63445;DHT22;49573;47.682;9.170;2024-02-16T10:39:27;14.30;60.20
63445;DHT22;49573;47.682;9.170;2024-02-16T10:42:14;14.50;61.30
63445;DHT22;49573;47.682;9.170;2024-02-16T10:45:02;14.50;60.10
63445;DHT22;49573;47.682;9.170;2024-02-16T10:47:50;14.70;60.40
63445;DHT22;49573;47.682;9.170;2024-02-16T10:50:37;15.10;60.30
63445;DHT22;49573;47.682;9.170;2024-02-16T10:53:25;15.20;59.50
63445;DHT22;49573;47.682;9.170;2024-02-16T10:56:13;15.40;59.70
63445;DHT22;49573;47.682;9.170;2024-02-16T10:59:02;15.60;58.80
63445;DHT22;49573;47.682;9.170;2024-02-16T11:02:00;15.70;57.40
63445;DHT22;49573;47.682;9.170;2024-02-16T11:04:46;16.40;58.10
63445;DHT22;49573;47.682;9.170;2024-02-16T11:07:33;16.40;56.60
63445;DHT22;49573;47.682;9.170;2024-02-16T11:10:19;16.30;55.80
63445;DHT22;49573;47.682;9.170;2024-02-16T11:13:05;16.10;57.30
63445;DHT22;49573;47.682;9.170;2024-02-16T11:15:57;16.40;56.50
63445;DHT22;49573;47.682;9.170;2024-02-16T11:18:46;16.10;56.30
63445;DHT22;49573;47.682;9.170;2024-02-16T11:21:35;16.30;56.20
63445;DHT22;49573;47.682;9.170;2024-02-16T11:24:29;16.60;54.30
63445;DHT22;49573;47.682;9.170;2024-02-16T11:27:16;16.50;56.40
63445;DHT22;49573;47.682;9.170;2024-02-16T11:30:06;17.10;56.20
63445;DHT22;49573;47.682;9.170;2024-02-16T11:32:52;17.60;55.30
63445;DHT22;49573;47.682;9.170;2024-02-16T11:35:40;17.70;52.10
63445;DHT22;49573;47.682;9.170;2024-02-16T11:38:26;17.80;52.80
63445;DHT22;49573;47.682;9.170;2024-02-16T11:41:12;17.80;52.80
63445;DHT22;49573;47.682;9.170;2024-02-16T11:44:01;17.80;52.60
63445;DHT22;49573;47.682;9.170;2024-02-16T11:46:48;18.40;51.80
63445;DHT22;49573;47.682;9.170;2024-02-16T11:49:34;19.10;50.00
63445;DHT22;49573;47.682;9.170;2024-02-16T11:52:21;19.30;48.00
63445;DHT22;49573;47.682;9.170;2024-02-16T11:55:08;19.50;49.60
63445;DHT22;49573;47.682;9.170;2024-02-16T11:57:54;20.00;49.90
63445;DHT22;49573;47.682;9.170;2024-02-16T12:00:42;20.70;49.20
63445;DHT22;49573;47.682;9.170;2024-02-16T12:03:28;19.80;46.50
63445;DHT22;49573;47.682;9.170;2024-02-16T12:06:19;20.80;48.80
63445;DHT22;49573;47.682;9.170;2024-02-16T12:09:08;20.30;47.80
63445;DHT22;49573;47.682;9.170;2024-02-16T12:11:55;21.50;46.50
63445;DHT22;49573;47.682;9.170;2024-02-16T12:14:41;21.90;47.30
63445;DHT22;49573;47.682;9.170;2024-02-16T12:17:27;21.50;42.80
63445;DHT22;49573;47.682;9.170;2024-02-16T12:20:14;21.80;43.20
63445;DHT22;49573;47.682;9.170;2024-02-16T12:23:10;22.50;42.70
63445;DHT22;49573;47.682;9.170;2024-02-16T12:25:58;23.30;40.40
63445;DHT22;49573;47.682;9.170;2024-02-16T12:28:44;23.10;41.20
63445;DHT22;49573;47.682;9.170;2024-02-16T12:31:30;23.70;40.80
63445;DHT22;49573;47.682;9.170;2024-02-16T12:34:16;23.90;39.70
63445;DHT22;49573;47.682;9.170;2024-02-16T12:37:04;22.60;41.00
63445;DHT22;49573;47.682;9.170;2024-02-16T12:39:50;23.10;42.00
63445;DHT22;49573;47.682;9.170;2024-02-16T12:42:38;23.50;40.30
63445;DHT22;49573;47.682;9.170;2024-02-16T12:45:24;23.90;39.80
63445;DHT22;49573;47.682;9.170;2024-02-16T12:48:10;24.30;38.80
63445;DHT22;49573;47.682;9.170;2024-02-16T12:50:58;23.30;40.40
63445;DHT22;49573;47.682;9.170;2024-02-16T12:53:44;22.90;41.00
63445;DHT22;49573;47.682;9.170;2024-02-16T12:56:31;22.40;42.60
63445;DHT22;49573;47.682;9.170;2024-02-16T12:59:20;21.30;43.00
63445;DHT22;49573;47.682;9.170;2024-02-16T13:02:07;21.60;43.80
63445;DHT22;49573;47.682;9.170;2024-02-16T13:04:53;21.30;44.40
63445;DHT22;49573;47.682;9.170;2024-02-16T13:07:40;21.30;44.90
63445;DHT22;49573;47.682;9.170;2024-02-16T13:10:27;20.70;45.50
63445;DHT22;49573;47.682;9.170;2024-02-16T13:13:13;20.20;47.30
63445;DHT22;49573;47.682;9.170;2024-02-16T13:16:00;20.30;46.80
63445;DHT22;49573;47.682;9.170;2024-02-16T13:18:46;20.20;47.30
63445;DHT22;49573;47.682;9.170;2024-02-16T13:21:32;20.50;47.40
63445;DHT22;49573;47.682;9.170;2024-02-16T13:24:18;20.60;46.50
63445;DHT22;49573;47.682;9.170;2024-02-16T13:27:05;20.80;47.40
63445;DHT22;49573;47.682;9.170;2024-02-16T13:29:51;21.00;47.00
63445;DHT22;49573;47.682;9.170;2024-02-16T13:32:39;20.00;48.20
63445;DHT22;49573;47.682;9.170;2024-02-16T13:35:25;19.80;48.70
63445;DHT22;49573;47.682;9.170;2024-02-16T13:38:12;19.90;49.20
63445;DHT22;49573;47.682;9.170;2024-02-16T13:40:59;19.40;50.80
63445;DHT22;49573;47.682;9.170;2024-02-16T13:43:45;19.30;51.50
63445;DHT22;49573;47.682;9.170;2024-02-16T13:46:31;19.10;52.10
63445;DHT22;49573;47.682;9.170;2024-02-16T13:49:20;19.30;51.90
63445;DHT22;49573;47.682;9.170;2024-02-16T13:52:06;18.90;53.20
63445;DHT22;49573;47.682;9.170;2024-02-16T13:54:54;19.20;52.10
63445;DHT22;49573;47.682;9.170;2024-02-16T13:57:40;18.90;53.20
63445;DHT22;49573;47.682;9.170;2024-02-16T14:00:26;18.70;53.70
63445;DHT22;49573;47.682;9.170;2024-02-16T14:03:13;18.70;53.10
63445;DHT22;49573;47.682;9.170;2024-02-16T14:06:01;18.60;54.30
63445;DHT22;49573;47.682;9.170;2024-02-16T14:08:47;18.90;53.50
63445;DHT22;49573;47.682;9.170;2024-02-16T14:11:35;18.80;53.80
63445;DHT22;49573;47.682;9.170;2024-02-16T14:14:21;18.80;54.10
63445;DHT22;49573;47.682;9.170;2024-02-16T14:17:07;19.10;54.00
63445;DHT22;49573;47.682;9.170;2024-02-16T14:19:53;19.00;53.90
63445;DHT22;49573;47.682;9.170;2024-02-16T14:22:41;19.10;54.00
63445;DHT22;49573;47.682;9.170;2024-02-16T14:25:27;18.50;54.10
63445;DHT22;49573;47.682;9.170;2024-02-16T14:28:13;18.50;54.60
63445;DHT22;49573;47.682;9.170;2024-02-16T14:30:59;18.80;54.40
63445;DHT22;49573;47.682;9.170;2024-02-16T14:33:45;18.30;54.70
63445;DHT22;49573;47.682;9.170;2024-02-16T14:36:31;18.30;55.60
63445;DHT22;49573;47.682;9.170;2024-02-16T14:39:19;18.20;55.10
63445;DHT22;49573;47.682;9.170;2024-02-16T14:42:05;17.90;56.30
63445;DHT22;49573;47.682;9.170;2024-02-16T14:44:51;17.70;57.00
63445;DHT22;49573;47.682;9.170;2024-02-16T14:47:37;17.70;56.80
63445;DHT22;49573;47.682;9.170;2024-02-16T14:50:23;17.40;57.30
63445;DHT22;49573;47.682;9.170;2024-02-16T14:53:10;17.10;58.50
63445;DHT22;49573;47.682;9.170;2024-02-16T14:55:57;17.00;58.90
63445;DHT22;49573;47.682;9.170;2024-02-16T14:58:43;16.80;60.00
63445;DHT22;49573;47.682;9.170;2024-02-16T15:01:30;16.80;59.80
63445;DHT22;49573;47.682;9.170;2024-02-16T15:04:17;16.50;61.00
63445;DHT22;49573;47.682;9.170;2024-02-16T15:07:03;16.50;61.10
63445;DHT22;49573;47.682;9.170;2024-02-16T15:09:50;16.50;61.10
63445;DHT22;49573;47.682;9.170;2024-02-16T15:12:37;16.40;61.30
63445;DHT22;49573;47.682;9.170;2024-02-16T15:15:25;16.30;61.60
63445;DHT22;49573;47.682;9.170;2024-02-16T15:18:11;16.30;61.90
63445;DHT22;49573;47.682;9.170;2024-02-16T15:20:58;16.30;62.10
63445;DHT22;49573;47.682;9.170;2024-02-16T15:23:44;16.20;62.00
63445;DHT22;49573;47.682;9.170;2024-02-16T15:26:30;16.20;62.10
63445;DHT22;49573;47.682;9.170;2024-02-16T15:29:17;16.20;62.10
63445;DHT22;49573;47.682;9.170;2024-02-16T15:32:04;16.10;62.30
63445;DHT22;49573;47.682;9.170;2024-02-16T15:34:50;16.10;62.30
63445;DHT22;49573;47.682;9.170;2024-02-16T15:37:39;16.00;62.90
63445;DHT22;49573;47.682;9.170;2024-02-16T15:40:25;15.80;63.70
63445;DHT22;49573;47.682;9.170;2024-02-16T15:43:12;15.70;63.90
63445;DHT22;49573;47.682;9.170;2024-02-16T15:46:00;15.80;63.60
63445;DHT22;49573;47.682;9.170;2024-02-16T15:48:46;15.90;63.70
63445;DHT22;49573;47.682;9.170;2024-02-16T15:51:34;15.70;64.20
63445;DHT22;49573;47.682;9.170;2024-02-16T15:54:20;15.70;64.60
63445;DHT22;49573;47.682;9.170;2024-02-16T15:57:11;15.70;64.70
63445;DHT22;49573;47.682;9.170;2024-02-16T15:59:58;15.80;64.20
63445;DHT22;49573;47.682;9.170;2024-02-16T16:02:45;15.70;64.90
63445;DHT22;49573;47.682;9.170;2024-02-16T16:05:31;15.60;65.20
63445;DHT22;49573;47.682;9.170;2024-02-16T16:08:19;15.70;65.30
63445;DHT22;49573;47.682;9.170;2024-02-16T16:11:06;15.70;65.10
63445;DHT22;49573;47.682;9.170;2024-02-16T16:13:52;15.70;65.60
63445;DHT22;49573;47.682;9.170;2024-02-16T16:16:38;15.60;66.10
63445;DHT22;49573;47.682;9.170;2024-02-16T16:19:25;15.50;66.60
63445;DHT22;49573;47.682;9.170;2024-02-16T16:22:12;15.50;66.70
63445;DHT22;49573;47.682;9.170;2024-02-16T16:24:59;15.40;66.50
63445;DHT22;49573;47.682;9.170;2024-02-16T16:27:46;15.30;66.80
63445;DHT22;49573;47.682;9.170;2024-02-16T16:30:34;15.30;66.90
63445;DHT22;49573;47.682;9.170;2024-02-16T16:33:20;15.30;67.60
63445;DHT22;49573;47.682;9.170;2024-02-16T16:36:08;15.20;68.10
63445;DHT22;49573;47.682;9.170;2024-02-16T16:39:00;15.10;68.20
63445;DHT22;49573;47.682;9.170;2024-02-16T16:41:46;15.20;68.00
63445;DHT22;49573;47.682;9.170;2024-02-16T16:44:32;15.20;67.90
63445;DHT22;49573;47.682;9.170;2024-02-16T16:47:18;15.10;68.40
63445;DHT22;49573;47.682;9.170;2024-02-16T16:50:05;15.00;68.50
63445;DHT22;49573;47.682;9.170;2024-02-16T16:52:54;15.00;68.60
63445;DHT22;49573;47.682;9.170;2024-02-16T16:55:41;15.00;68.90
63445;DHT22;49573;47.682;9.170;2024-02-16T16:58:27;14.90;68.70
63445;DHT22;49573;47.682;9.170;2024-02-16T17:01:14;14.90;68.90
63445;DHT22;49573;47.682;9.170;2024-02-16T17:04:00;14.90;68.70
63445;DHT22;49573;47.682;9.170;2024-02-16T17:06:46;14.90;68.60
63445;DHT22;49573;47.682;9.170;2024-02-16T17:09:34;14.80;69.10
63445;DHT22;49573;47.682;9.170;2024-02-16T17:12:21;14.80;68.70
63445;DHT22;49573;47.682;9.170;2024-02-16T17:15:09;14.70;69.80
63445;DHT22;49573;47.682;9.170;2024-02-16T17:17:57;14.60;70.10
63445;DHT22;49573;47.682;9.170;2024-02-16T17:20:43;14.50;70.30
63445;DHT22;49573;47.682;9.170;2024-02-16T17:23:30;14.50;70.40
63445;DHT22;49573;47.682;9.170;2024-02-16T17:26:18;14.50;70.40
63445;DHT22;49573;47.682;9.170;2024-02-16T17:29:04;14.50;70.30
63445;DHT22;49573;47.682;9.170;2024-02-16T17:31:50;14.50;70.20
63445;DHT22;49573;47.682;9.170;2024-02-16T17:34:37;14.40;70.60
63445;DHT22;49573;47.682;9.170;2024-02-16T17:37:24;14.30;70.70
63445;DHT22;49573;47.682;9.170;2024-02-16T17:40:12;14.40;70.50
63445;DHT22;49573;47.682;9.170;2024-02-16T17:43:00;14.40;70.80